sensor_id;sensor_type;location;lat;lon;timestamp;P1;durP1;ratioP1;P2;durP2;ratioP2
31990;SDS011;18508;49.386;8.370;2023-08-24T00:01:04;11.68;;;7.00;;
31990;SDS011;18508;49.386;8.370;2023-08-24T00:03:34;13.68;;;6.95;;
31990;SDS011;18508;49.386;8.370;2023-08-24T00:06:02;10.50;;;7.63;;
31990;SDS011;18508;49.386;8.370;2023-08-24T00:08:30;8.43;;;6.85;;
31990;SDS011;18508;49.386;8.370;2023-08-24T00:10:59;13.45;;;6.45;;
31990;SDS011;18508;49.386;8.370;2023-08-24T00:13:27;10.25;;;6.53;;
31990;SDS011;18508;49.386;8.370;2023-08-24T00:15:55;14.63;;;7.28;;
31990;SDS011;18508;49.386;8.370;2023-08-24T00:18:23;13.07;;;6.63;;
31990;SDS011;18508;49.386;8.370;2023-08-24T00:20:53;8.45;;;6.63;;
31990;SDS011;18508;49.386;8.370;2023-08-24T00:23:22;10.40;;;6.78;;
31990;SDS011;18508;49.386;8.370;2023-08-24T00:25:50;8.85;;;6.85;;
31990;SDS011;18508;49.386;8.370;2023-08-24T00:28:18;10.55;;;6.88;;
31990;SDS011;18508;49.386;8.370;2023-08-24T00:30:46;12.68;;;6.43;;
31990;SDS011;18508;49.386;8.370;2023-08-24T00:33:14;9.60;;;6.63;;
31990;SDS011;18508;49.386;8.370;2023-08-24T00:35:42;9.35;;;6.70;;
31990;SDS011;18508;49.386;8.370;2023-08-24T00:38:12;13.23;;;6.97;;
31990;SDS011;18508;49.386;8.370;2023-08-24T00:40:41;10.15;;;6.72;;
31990;SDS011;18508;49.386;8.370;2023-08-24T00:43:09;13.07;;;6.88;;
31990;SDS011;18508;49.386;8.370;2023-08-24T00:45:38;10.48;;;6.20;;
31990;SDS011;18508;49.386;8.370;2023-08-24T00:48:06;12.38;;;6.50;;
31990;SDS011;18508;49.386;8.370;2023-08-24T00:50:35;10.88;;;6.80;;
31990;SDS011;18508;49.386;8.370;2023-08-24T00:53:03;12.20;;;6.25;;
31990;SDS011;18508;49.386;8.370;2023-08-24T00:55:34;10.65;;;6.68;;
31990;SDS011;18508;49.386;8.370;2023-08-24T00:58:02;9.30;;;6.57;;
31990;SDS011;18508;49.386;8.370;2023-08-24T01:00:32;12.15;;;6.95;;
31990;SDS011;18508;49.386;8.370;2023-08-24T01:03:00;18.17;;;7.05;;
31990;SDS011;18508;49.386;8.370;2023-08-24T01:05:28;14.30;;;7.22;;
31990;SDS011;18508;49.386;8.370;2023-08-24T01:07:59;12.48;;;6.72;;
31990;SDS011;18508;49.386;8.370;2023-08-24T01:10:28;17.13;;;7.43;;
31990;SDS011;18508;49.386;8.370;2023-08-24T01:13:07;11.20;;;7.45;;
31990;SDS011;18508;49.386;8.370;2023-08-24T01:15:37;14.43;;;7.25;;
31990;SDS011;18508;49.386;8.370;2023-08-24T01:18:11;10.52;;;6.50;;
31990;SDS011;18508;49.386;8.370;2023-08-24T01:20:42;11.05;;;6.65;;
31990;SDS011;18508;49.386;8.370;2023-08-24T01:23:17;9.68;;;6.85;;
31990;SDS011;18508;49.386;8.370;2023-08-24T01:25:59;15.68;;;7.95;;
31990;SDS011;18508;49.386;8.370;2023-08-24T01:28:32;11.65;;;7.28;;
31990;SDS011;18508;49.386;8.370;2023-08-24T01:31:00;14.10;;;7.53;;
31990;SDS011;18508;49.386;8.370;2023-08-24T01:33:31;15.52;;;7.70;;
31990;SDS011;18508;49.386;8.370;2023-08-24T01:35:59;12.70;;;7.20;;
31990;SDS011;18508;49.386;8.370;2023-08-24T01:38:28;9.82;;;6.93;;
31990;SDS011;18508;49.386;8.370;2023-08-24T01:41:02;14.45;;;7.32;;
31990;SDS011;18508;49.386;8.370;2023-08-24T01:43:36;13.27;;;6.95;;
31990;SDS011;18508;49.386;8.370;2023-08-24T01:46:10;11.05;;;7.75;;
31990;SDS011;18508;49.386;8.370;2023-08-24T01:48:42;15.25;;;7.40;;
31990;SDS011;18508;49.386;8.370;2023-08-24T01:51:11;13.40;;;6.90;;
31990;SDS011;18508;49.386;8.370;2023-08-24T01:53:41;10.93;;;7.03;;
31990;SDS011;18508;49.386;8.370;2023-08-24T01:56:12;13.52;;;7.95;;
31990;SDS011;18508;49.386;8.370;2023-08-24T01:58:40;10.50;;;6.32;;
31990;SDS011;18508;49.386;8.370;2023-08-24T02:01:09;10.82;;;6.70;;
31990;SDS011;18508;49.386;8.370;2023-08-24T02:03:39;16.85;;;7.68;;
31990;SDS011;18508;49.386;8.370;2023-08-24T02:06:07;11.60;;;6.60;;
31990;SDS011;18508;49.386;8.370;2023-08-24T02:08:36;10.48;;;6.63;;
31990;SDS011;18508;49.386;8.370;2023-08-24T02:11:03;7.60;;;6.00;;
31990;SDS011;18508;49.386;8.370;2023-08-24T02:13:32;14.10;;;7.65;;
31990;SDS011;18508;49.386;8.370;2023-08-24T02:16:01;20.42;;;8.68;;
31990;SDS011;18508;49.386;8.370;2023-08-24T02:18:30;24.50;;;9.32;;
31990;SDS011;18508;49.386;8.370;2023-08-24T02:21:00;17.23;;;9.25;;
31990;SDS011;18508;49.386;8.370;2023-08-24T02:23:33;17.15;;;8.05;;
31990;SDS011;18508;49.386;8.370;2023-08-24T02:26:02;18.75;;;9.77;;
31990;SDS011;18508;49.386;8.370;2023-08-24T02:28:30;16.38;;;8.38;;
31990;SDS011;18508;49.386;8.370;2023-08-24T02:33:32;20.52;;;9.68;;
31990;SDS011;18508;49.386;8.370;2023-08-24T02:36:00;16.38;;;9.38;;
31990;SDS011;18508;49.386;8.370;2023-08-24T02:38:28;18.17;;;8.43;;
31990;SDS011;18508;49.386;8.370;2023-08-24T02:41:00;18.63;;;9.95;;
31990;SDS011;18508;49.386;8.370;2023-08-24T02:43:29;18.55;;;8.73;;
31990;SDS011;18508;49.386;8.370;2023-08-24T02:46:02;14.52;;;7.97;;
31990;SDS011;18508;49.386;8.370;2023-08-24T02:48:31;15.40;;;8.00;;
31990;SDS011;18508;49.386;8.370;2023-08-24T02:51:00;10.98;;;7.75;;
31990;SDS011;18508;49.386;8.370;2023-08-24T02:53:29;12.70;;;8.07;;
31990;SDS011;18508;49.386;8.370;2023-08-24T02:55:59;11.80;;;8.45;;
31990;SDS011;18508;49.386;8.370;2023-08-24T02:58:27;11.45;;;8.13;;
31990;SDS011;18508;49.386;8.370;2023-08-24T03:00:56;11.85;;;8.45;;
31990;SDS011;18508;49.386;8.370;2023-08-24T03:03:27;15.68;;;8.75;;
31990;SDS011;18508;49.386;8.370;2023-08-24T03:05:56;14.40;;;8.40;;
31990;SDS011;18508;49.386;8.370;2023-08-24T03:08:26;15.02;;;8.35;;
31990;SDS011;18508;49.386;8.370;2023-08-24T03:10:56;25.75;;;8.70;;
31990;SDS011;18508;49.386;8.370;2023-08-24T03:13:25;15.02;;;8.13;;
31990;SDS011;18508;49.386;8.370;2023-08-24T03:15:55;13.77;;;7.55;;
31990;SDS011;18508;49.386;8.370;2023-08-24T03:18:23;10.23;;;7.32;;
31990;SDS011;18508;49.386;8.370;2023-08-24T03:20:52;12.88;;;7.57;;
31990;SDS011;18508;49.386;8.370;2023-08-24T03:23:20;10.38;;;7.50;;
31990;SDS011;18508;49.386;8.370;2023-08-24T03:25:48;12.43;;;7.70;;
31990;SDS011;18508;49.386;8.370;2023-08-24T03:28:17;12.13;;;8.43;;
31990;SDS011;18508;49.386;8.370;2023-08-24T03:30:48;15.05;;;7.25;;
31990;SDS011;18508;49.386;8.370;2023-08-24T03:33:23;12.10;;;7.95;;
31990;SDS011;18508;49.386;8.370;2023-08-24T03:35:54;11.48;;;7.60;;
31990;SDS011;18508;49.386;8.370;2023-08-24T03:38:22;13.10;;;6.95;;
31990;SDS011;18508;49.386;8.370;2023-08-24T03:40:50;12.98;;;6.82;;
31990;SDS011;18508;49.386;8.370;2023-08-24T03:43:18;9.88;;;7.22;;
31990;SDS011;18508;49.386;8.370;2023-08-24T03:45:47;10.05;;;7.22;;
31990;SDS011;18508;49.386;8.370;2023-08-24T03:48:15;11.15;;;6.97;;
31990;SDS011;18508;49.386;8.370;2023-08-24T03:50:45;11.80;;;7.22;;
31990;SDS011;18508;49.386;8.370;2023-08-24T03:53:15;13.07;;;7.82;;
31990;SDS011;18508;49.386;8.370;2023-08-24T03:55:46;10.63;;;6.85;;
31990;SDS011;18508;49.386;8.370;2023-08-24T03:58:15;12.95;;;7.05;;
31990;SDS011;18508;49.386;8.370;2023-08-24T04:00:46;13.85;;;7.15;;
31990;SDS011;18508;49.386;8.370;2023-08-24T04:03:14;11.25;;;7.32;;
31990;SDS011;18508;49.386;8.370;2023-08-24T04:05:43;10.82;;;6.53;;
31990;SDS011;18508;49.386;8.370;2023-08-24T04:08:12;15.18;;;7.85;;
31990;SDS011;18508;49.386;8.370;2023-08-24T04:10:42;16.20;;;7.75;;
31990;SDS011;18508;49.386;8.370;2023-08-24T04:13:10;15.30;;;7.70;;
31990;SDS011;18508;49.386;8.370;2023-08-24T04:15:38;12.82;;;7.93;;
31990;SDS011;18508;49.386;8.370;2023-08-24T04:18:07;12.30;;;7.78;;
31990;SDS011;18508;49.386;8.370;2023-08-24T04:20:35;16.42;;;8.77;;
31990;SDS011;18508;49.386;8.370;2023-08-24T04:23:03;14.25;;;8.45;;
31990;SDS011;18508;49.386;8.370;2023-08-24T04:28:08;18.33;;;8.43;;
31990;SDS011;18508;49.386;8.370;2023-08-24T04:30:36;14.88;;;8.85;;
31990;SDS011;18508;49.386;8.370;2023-08-24T04:33:05;16.10;;;8.43;;
31990;SDS011;18508;49.386;8.370;2023-08-24T04:35:35;12.82;;;8.75;;
31990;SDS011;18508;49.386;8.370;2023-08-24T04:38:04;19.10;;;8.65;;
31990;SDS011;18508;49.386;8.370;2023-08-24T04:40:44;18.17;;;8.05;;
31990;SDS011;18508;49.386;8.370;2023-08-24T04:43:24;18.17;;;8.65;;
31990;SDS011;18508;49.386;8.370;2023-08-24T04:45:53;14.45;;;7.72;;
31990;SDS011;18508;49.386;8.370;2023-08-24T04:48:25;15.65;;;8.77;;
31990;SDS011;18508;49.386;8.370;2023-08-24T04:50:53;18.38;;;9.00;;
31990;SDS011;18508;49.386;8.370;2023-08-24T04:53:22;16.13;;;8.52;;
31990;SDS011;18508;49.386;8.370;2023-08-24T04:55:51;18.70;;;8.60;;
31990;SDS011;18508;49.386;8.370;2023-08-24T04:58:23;21.23;;;8.63;;
31990;SDS011;18508;49.386;8.370;2023-08-24T05:00:53;25.55;;;9.07;;
31990;SDS011;18508;49.386;8.370;2023-08-24T05:03:22;17.60;;;8.18;;
31990;SDS011;18508;49.386;8.370;2023-08-24T05:05:50;13.25;;;7.60;;
31990;SDS011;18508;49.386;8.370;2023-08-24T05:08:19;17.83;;;8.32;;
31990;SDS011;18508;49.386;8.370;2023-08-24T05:10:47;24.88;;;9.32;;
31990;SDS011;18508;49.386;8.370;2023-08-24T05:13:19;28.35;;;8.93;;
31990;SDS011;18508;49.386;8.370;2023-08-24T05:15:48;17.02;;;8.48;;
31990;SDS011;18508;49.386;8.370;2023-08-24T05:18:16;23.50;;;9.20;;
31990;SDS011;18508;49.386;8.370;2023-08-24T05:20:46;24.50;;;8.40;;
31990;SDS011;18508;49.386;8.370;2023-08-24T05:23:14;21.42;;;9.10;;
31990;SDS011;18508;49.386;8.370;2023-08-24T05:25:46;16.13;;;8.73;;
31990;SDS011;18508;49.386;8.370;2023-08-24T05:28:14;14.15;;;7.85;;
31990;SDS011;18508;49.386;8.370;2023-08-24T05:30:43;38.00;;;9.32;;
31990;SDS011;18508;49.386;8.370;2023-08-24T05:33:13;25.30;;;9.13;;
31990;SDS011;18508;49.386;8.370;2023-08-24T05:35:43;17.85;;;8.55;;
31990;SDS011;18508;49.386;8.370;2023-08-24T05:38:12;16.48;;;7.32;;
31990;SDS011;18508;49.386;8.370;2023-08-24T05:40:40;13.48;;;7.75;;
31990;SDS011;18508;49.386;8.370;2023-08-24T05:43:11;15.85;;;7.30;;
31990;SDS011;18508;49.386;8.370;2023-08-24T05:45:41;12.02;;;7.38;;
31990;SDS011;18508;49.386;8.370;2023-08-24T05:48:11;11.20;;;7.32;;
31990;SDS011;18508;49.386;8.370;2023-08-24T05:50:43;11.68;;;7.75;;
31990;SDS011;18508;49.386;8.370;2023-08-24T05:53:12;10.60;;;7.53;;
31990;SDS011;18508;49.386;8.370;2023-08-24T05:55:42;9.93;;;7.53;;
31990;SDS011;18508;49.386;8.370;2023-08-24T05:58:10;15.52;;;7.60;;
31990;SDS011;18508;49.386;8.370;2023-08-24T06:00:38;13.65;;;7.18;;
31990;SDS011;18508;49.386;8.370;2023-08-24T06:03:07;12.55;;;7.68;;
31990;SDS011;18508;49.386;8.370;2023-08-24T06:05:35;10.93;;;7.15;;
31990;SDS011;18508;49.386;8.370;2023-08-24T06:08:08;13.70;;;7.00;;
31990;SDS011;18508;49.386;8.370;2023-08-24T06:10:37;10.57;;;6.45;;
31990;SDS011;18508;49.386;8.370;2023-08-24T06:13:07;10.43;;;6.88;;
31990;SDS011;18508;49.386;8.370;2023-08-24T06:15:35;15.63;;;6.80;;
31990;SDS011;18508;49.386;8.370;2023-08-24T06:18:03;12.05;;;7.07;;
31990;SDS011;18508;49.386;8.370;2023-08-24T06:20:32;14.88;;;6.53;;
31990;SDS011;18508;49.386;8.370;2023-08-24T06:23:00;15.65;;;6.90;;
31990;SDS011;18508;49.386;8.370;2023-08-24T06:25:30;12.02;;;6.35;;
31990;SDS011;18508;49.386;8.370;2023-08-24T06:27:58;11.15;;;6.80;;
31990;SDS011;18508;49.386;8.370;2023-08-24T06:30:30;13.63;;;6.80;;
31990;SDS011;18508;49.386;8.370;2023-08-24T06:33:03;9.63;;;6.68;;
31990;SDS011;18508;49.386;8.370;2023-08-24T06:35:32;9.95;;;6.32;;
31990;SDS011;18508;49.386;8.370;2023-08-24T06:38:01;8.35;;;6.32;;
31990;SDS011;18508;49.386;8.370;2023-08-24T06:40:32;11.95;;;6.82;;
31990;SDS011;18508;49.386;8.370;2023-08-24T06:43:00;10.70;;;6.55;;
31990;SDS011;18508;49.386;8.370;2023-08-24T06:45:28;10.93;;;6.35;;
31990;SDS011;18508;49.386;8.370;2023-08-24T06:47:56;7.60;;;5.50;;
31990;SDS011;18508;49.386;8.370;2023-08-24T06:50:25;9.77;;;6.28;;
31990;SDS011;18508;49.386;8.370;2023-08-24T06:52:55;12.98;;;6.78;;
31990;SDS011;18508;49.386;8.370;2023-08-24T06:55:23;12.20;;;7.15;;
31990;SDS011;18508;49.386;8.370;2023-08-24T06:57:55;15.68;;;7.60;;
31990;SDS011;18508;49.386;8.370;2023-08-24T07:00:23;10.82;;;7.28;;
31990;SDS011;18508;49.386;8.370;2023-08-24T07:02:53;12.52;;;6.80;;
31990;SDS011;18508;49.386;8.370;2023-08-24T07:05:22;13.05;;;7.43;;
31990;SDS011;18508;49.386;8.370;2023-08-24T07:07:51;12.73;;;7.47;;
31990;SDS011;18508;49.386;8.370;2023-08-24T07:10:20;12.50;;;7.40;;
31990;SDS011;18508;49.386;8.370;2023-08-24T07:12:50;13.95;;;8.38;;
31990;SDS011;18508;49.386;8.370;2023-08-24T07:15:20;14.93;;;9.25;;
31990;SDS011;18508;49.386;8.370;2023-08-24T07:17:49;13.85;;;9.13;;
31990;SDS011;18508;49.386;8.370;2023-08-24T07:20:18;13.15;;;10.05;;
31990;SDS011;18508;49.386;8.370;2023-08-24T07:22:47;13.63;;;9.48;;
31990;SDS011;18508;49.386;8.370;2023-08-24T07:25:17;12.35;;;9.07;;
31990;SDS011;18508;49.386;8.370;2023-08-24T07:27:47;11.50;;;9.77;;
31990;SDS011;18508;49.386;8.370;2023-08-24T07:30:20;13.63;;;9.93;;
31990;SDS011;18508;49.386;8.370;2023-08-24T07:32:59;16.73;;;9.82;;
31990;SDS011;18508;49.386;8.370;2023-08-24T07:35:29;13.68;;;8.95;;
31990;SDS011;18508;49.386;8.370;2023-08-24T07:37:58;13.48;;;8.90;;
31990;SDS011;18508;49.386;8.370;2023-08-24T07:40:26;12.65;;;9.70;;
31990;SDS011;18508;49.386;8.370;2023-08-24T07:42:55;17.20;;;9.55;;
31990;SDS011;18508;49.386;8.370;2023-08-24T07:45:25;10.82;;;9.48;;
31990;SDS011;18508;49.386;8.370;2023-08-24T07:47:54;14.43;;;8.50;;
31990;SDS011;18508;49.386;8.370;2023-08-24T07:50:22;12.73;;;9.18;;
31990;SDS011;18508;49.386;8.370;2023-08-24T07:52:50;15.52;;;8.15;;
31990;SDS011;18508;49.386;8.370;2023-08-24T07:55:23;11.13;;;8.25;;
31990;SDS011;18508;49.386;8.370;2023-08-24T07:57:52;12.15;;;9.02;;
31990;SDS011;18508;49.386;8.370;2023-08-24T08:00:21;14.73;;;8.35;;
31990;SDS011;18508;49.386;8.370;2023-08-24T08:02:54;15.55;;;8.82;;
31990;SDS011;18508;49.386;8.370;2023-08-24T08:05:23;11.38;;;8.50;;
31990;SDS011;18508;49.386;8.370;2023-08-24T08:07:54;10.27;;;8.38;;
31990;SDS011;18508;49.386;8.370;2023-08-24T08:10:22;11.02;;;8.10;;
31990;SDS011;18508;49.386;8.370;2023-08-24T08:12:51;10.57;;;8.02;;
31990;SDS011;18508;49.386;8.370;2023-08-24T08:15:20;10.38;;;8.43;;
31990;SDS011;18508;49.386;8.370;2023-08-24T08:17:48;11.55;;;8.13;;
31990;SDS011;18508;49.386;8.370;2023-08-24T08:20:19;9.43;;;7.45;;
31990;SDS011;18508;49.386;8.370;2023-08-24T08:22:47;13.18;;;7.68;;
31990;SDS011;18508;49.386;8.370;2023-08-24T08:25:15;9.38;;;8.00;;
31990;SDS011;18508;49.386;8.370;2023-08-24T08:27:45;12.25;;;7.68;;
31990;SDS011;18508;49.386;8.370;2023-08-24T08:30:13;11.65;;;7.65;;
31990;SDS011;18508;49.386;8.370;2023-08-24T08:32:42;9.27;;;7.65;;
31990;SDS011;18508;49.386;8.370;2023-08-24T08:35:11;14.02;;;8.13;;
31990;SDS011;18508;49.386;8.370;2023-08-24T08:37:41;10.38;;;7.40;;
31990;SDS011;18508;49.386;8.370;2023-08-24T08:40:09;14.48;;;7.85;;
31990;SDS011;18508;49.386;8.370;2023-08-24T08:42:38;12.60;;;8.07;;
31990;SDS011;18508;49.386;8.370;2023-08-24T08:45:08;9.63;;;6.72;;
31990;SDS011;18508;49.386;8.370;2023-08-24T08:47:38;12.35;;;7.05;;
31990;SDS011;18508;49.386;8.370;2023-08-24T08:50:08;9.95;;;7.25;;
31990;SDS011;18508;49.386;8.370;2023-08-24T08:52:36;11.13;;;7.32;;
31990;SDS011;18508;49.386;8.370;2023-08-24T08:55:06;9.57;;;6.70;;
31990;SDS011;18508;49.386;8.370;2023-08-24T09:00:10;11.02;;;7.25;;
31990;SDS011;18508;49.386;8.370;2023-08-24T09:02:41;14.63;;;6.97;;
31990;SDS011;18508;49.386;8.370;2023-08-24T09:05:11;15.82;;;6.47;;
31990;SDS011;18508;49.386;8.370;2023-08-24T09:07:40;10.77;;;6.43;;
31990;SDS011;18508;49.386;8.370;2023-08-24T09:10:10;7.85;;;6.43;;
31990;SDS011;18508;49.386;8.370;2023-08-24T09:12:38;12.43;;;6.65;;
31990;SDS011;18508;49.386;8.370;2023-08-24T09:15:07;15.68;;;6.75;;
31990;SDS011;18508;49.386;8.370;2023-08-24T09:17:36;14.50;;;5.90;;
31990;SDS011;18508;49.386;8.370;2023-08-24T09:20:12;15.48;;;6.82;;
31990;SDS011;18508;49.386;8.370;2023-08-24T09:22:42;9.63;;;5.55;;
31990;SDS011;18508;49.386;8.370;2023-08-24T09:25:11;7.47;;;4.75;;
31990;SDS011;18508;49.386;8.370;2023-08-24T09:27:40;13.35;;;5.18;;
31990;SDS011;18508;49.386;8.370;2023-08-24T09:30:10;12.45;;;5.15;;
31990;SDS011;18508;49.386;8.370;2023-08-24T09:32:39;14.32;;;5.13;;
31990;SDS011;18508;49.386;8.370;2023-08-24T09:35:09;8.55;;;4.43;;
31990;SDS011;18508;49.386;8.370;2023-08-24T09:37:37;8.15;;;4.68;;
31990;SDS011;18508;49.386;8.370;2023-08-24T09:40:08;8.60;;;4.38;;
31990;SDS011;18508;49.386;8.370;2023-08-24T09:42:41;10.80;;;4.43;;
31990;SDS011;18508;49.386;8.370;2023-08-24T09:47:39;7.95;;;4.05;;
31990;SDS011;18508;49.386;8.370;2023-08-24T09:50:12;8.27;;;4.22;;
31990;SDS011;18508;49.386;8.370;2023-08-24T09:52:40;11.00;;;4.78;;
31990;SDS011;18508;49.386;8.370;2023-08-24T09:55:10;7.70;;;4.13;;
31990;SDS011;18508;49.386;8.370;2023-08-24T09:57:52;5.88;;;3.95;;
31990;SDS011;18508;49.386;8.370;2023-08-24T10:00:24;4.72;;;3.88;;
31990;SDS011;18508;49.386;8.370;2023-08-24T10:02:57;7.93;;;4.45;;
31990;SDS011;18508;49.386;8.370;2023-08-24T10:05:30;7.30;;;3.78;;
31990;SDS011;18508;49.386;8.370;2023-08-24T10:08:20;6.93;;;3.78;;
31990;SDS011;18508;49.386;8.370;2023-08-24T10:10:53;7.22;;;3.92;;
31990;SDS011;18508;49.386;8.370;2023-08-24T10:13:29;7.00;;;3.38;;
31990;SDS011;18508;49.386;8.370;2023-08-24T10:16:04;7.72;;;3.28;;
31990;SDS011;18508;49.386;8.370;2023-08-24T10:18:37;10.20;;;3.40;;
31990;SDS011;18508;49.386;8.370;2023-08-24T10:21:08;14.32;;;3.63;;
31990;SDS011;18508;49.386;8.370;2023-08-24T10:23:42;6.28;;;3.20;;
31990;SDS011;18508;49.386;8.370;2023-08-24T10:26:13;8.48;;;3.63;;
31990;SDS011;18508;49.386;8.370;2023-08-24T10:28:45;8.85;;;3.75;;
31990;SDS011;18508;49.386;8.370;2023-08-24T10:31:14;7.82;;;4.25;;
31990;SDS011;18508;49.386;8.370;2023-08-24T10:33:43;7.90;;;3.63;;
31990;SDS011;18508;49.386;8.370;2023-08-24T10:36:12;6.22;;;3.30;;
31990;SDS011;18508;49.386;8.370;2023-08-24T10:38:42;8.07;;;3.92;;
31990;SDS011;18508;49.386;8.370;2023-08-24T10:41:11;6.75;;;3.15;;
31990;SDS011;18508;49.386;8.370;2023-08-24T10:43:42;8.25;;;3.63;;
31990;SDS011;18508;49.386;8.370;2023-08-24T10:46:20;7.50;;;4.00;;
31990;SDS011;18508;49.386;8.370;2023-08-24T10:48:57;10.02;;;4.38;;
31990;SDS011;18508;49.386;8.370;2023-08-24T10:51:25;8.18;;;3.70;;
31990;SDS011;18508;49.386;8.370;2023-08-24T10:53:56;8.13;;;4.15;;
31990;SDS011;18508;49.386;8.370;2023-08-24T10:56:29;7.13;;;3.10;;
31990;SDS011;18508;49.386;8.370;2023-08-24T10:59:13;13.32;;;4.50;;
31990;SDS011;18508;49.386;8.370;2023-08-24T11:01:42;9.90;;;3.97;;
31990;SDS011;18508;49.386;8.370;2023-08-24T11:04:22;9.23;;;4.45;;
31990;SDS011;18508;49.386;8.370;2023-08-24T11:06:51;7.32;;;3.55;;
31990;SDS011;18508;49.386;8.370;2023-08-24T11:09:20;7.60;;;3.35;;
31990;SDS011;18508;49.386;8.370;2023-08-24T11:11:56;5.82;;;3.20;;
31990;SDS011;18508;49.386;8.370;2023-08-24T11:14:27;5.00;;;3.33;;
31990;SDS011;18508;49.386;8.370;2023-08-24T11:16:57;7.22;;;3.30;;
31990;SDS011;18508;49.386;8.370;2023-08-24T11:19:27;5.88;;;3.90;;
31990;SDS011;18508;49.386;8.370;2023-08-24T11:21:57;7.82;;;3.70;;
31990;SDS011;18508;49.386;8.370;2023-08-24T11:24:25;5.22;;;3.10;;
31990;SDS011;18508;49.386;8.370;2023-08-24T11:26:54;7.95;;;3.83;;
31990;SDS011;18508;49.386;8.370;2023-08-24T11:29:24;8.32;;;3.80;;
31990;SDS011;18508;49.386;8.370;2023-08-24T11:31:54;6.82;;;3.60;;
31990;SDS011;18508;49.386;8.370;2023-08-24T11:34:25;7.47;;;3.75;;
31990;SDS011;18508;49.386;8.370;2023-08-24T11:36:54;6.05;;;3.50;;
31990;SDS011;18508;49.386;8.370;2023-08-24T11:39:23;6.93;;;3.72;;
31990;SDS011;18508;49.386;8.370;2023-08-24T11:41:58;10.50;;;4.32;;
31990;SDS011;18508;49.386;8.370;2023-08-24T11:44:27;7.45;;;3.35;;
31990;SDS011;18508;49.386;8.370;2023-08-24T11:46:58;7.65;;;4.00;;
31990;SDS011;18508;49.386;8.370;2023-08-24T11:49:26;6.30;;;3.63;;
31990;SDS011;18508;49.386;8.370;2023-08-24T11:51:55;6.88;;;3.75;;
31990;SDS011;18508;49.386;8.370;2023-08-24T11:54:24;6.50;;;3.78;;
31990;SDS011;18508;49.386;8.370;2023-08-24T11:56:53;7.20;;;3.88;;
31990;SDS011;18508;49.386;8.370;2023-08-24T11:59:21;7.72;;;3.88;;
31990;SDS011;18508;49.386;8.370;2023-08-24T12:01:49;6.15;;;3.83;;
31990;SDS011;18508;49.386;8.370;2023-08-24T12:04:20;7.32;;;4.13;;
31990;SDS011;18508;49.386;8.370;2023-08-24T12:06:48;6.22;;;4.53;;
31990;SDS011;18508;49.386;8.370;2023-08-24T12:09:17;4.95;;;3.92;;
31990;SDS011;18508;49.386;8.370;2023-08-24T12:11:45;7.72;;;3.97;;
31990;SDS011;18508;49.386;8.370;2023-08-24T12:14:16;7.97;;;4.05;;
31990;SDS011;18508;49.386;8.370;2023-08-24T12:16:45;4.82;;;3.40;;
31990;SDS011;18508;49.386;8.370;2023-08-24T12:19:21;9.05;;;3.88;;
31990;SDS011;18508;49.386;8.370;2023-08-24T12:21:50;6.30;;;4.13;;
31990;SDS011;18508;49.386;8.370;2023-08-24T12:24:18;6.32;;;4.50;;
31990;SDS011;18508;49.386;8.370;2023-08-24T12:26:55;7.05;;;4.03;;
31990;SDS011;18508;49.386;8.370;2023-08-24T12:29:24;6.53;;;4.35;;
31990;SDS011;18508;49.386;8.370;2023-08-24T12:31:55;6.95;;;4.72;;
31990;SDS011;18508;49.386;8.370;2023-08-24T12:34:26;6.80;;;4.43;;
31990;SDS011;18508;49.386;8.370;2023-08-24T12:36:54;7.85;;;4.00;;
31990;SDS011;18508;49.386;8.370;2023-08-24T12:39:23;9.90;;;4.20;;
31990;SDS011;18508;49.386;8.370;2023-08-24T12:41:51;7.50;;;3.78;;
31990;SDS011;18508;49.386;8.370;2023-08-24T12:44:20;7.78;;;4.13;;
31990;SDS011;18508;49.386;8.370;2023-08-24T12:46:48;8.18;;;3.88;;
31990;SDS011;18508;49.386;8.370;2023-08-24T12:49:16;6.40;;;3.83;;
31990;SDS011;18508;49.386;8.370;2023-08-24T12:51:46;6.78;;;4.60;;
31990;SDS011;18508;49.386;8.370;2023-08-24T12:54:15;9.75;;;3.95;;
31990;SDS011;18508;49.386;8.370;2023-08-24T12:56:43;8.25;;;4.13;;
31990;SDS011;18508;49.386;8.370;2023-08-24T12:59:11;7.25;;;3.88;;
31990;SDS011;18508;49.386;8.370;2023-08-24T13:01:39;5.40;;;3.80;;
31990;SDS011;18508;49.386;8.370;2023-08-24T13:04:08;6.88;;;4.22;;
31990;SDS011;18508;49.386;8.370;2023-08-24T13:06:37;9.25;;;3.90;;
31990;SDS011;18508;49.386;8.370;2023-08-24T13:09:07;6.10;;;4.25;;
31990;SDS011;18508;49.386;8.370;2023-08-24T13:11:36;6.40;;;3.90;;
31990;SDS011;18508;49.386;8.370;2023-08-24T13:14:04;7.82;;;4.00;;
31990;SDS011;18508;49.386;8.370;2023-08-24T13:16:33;6.22;;;3.67;;
31990;SDS011;18508;49.386;8.370;2023-08-24T13:19:01;5.85;;;3.80;;
31990;SDS011;18508;49.386;8.370;2023-08-24T13:21:29;8.93;;;3.67;;
31990;SDS011;18508;49.386;8.370;2023-08-24T13:23:58;11.48;;;4.05;;
31990;SDS011;18508;49.386;8.370;2023-08-24T13:26:27;6.07;;;3.92;;
31990;SDS011;18508;49.386;8.370;2023-08-24T13:28:55;11.77;;;4.20;;
31990;SDS011;18508;49.386;8.370;2023-08-24T13:31:24;6.18;;;3.78;;
31990;SDS011;18508;49.386;8.370;2023-08-24T13:33:52;6.85;;;3.97;;
31990;SDS011;18508;49.386;8.370;2023-08-24T13:36:21;5.28;;;4.07;;
31990;SDS011;18508;49.386;8.370;2023-08-24T13:38:49;7.53;;;4.28;;
31990;SDS011;18508;49.386;8.370;2023-08-24T13:41:18;8.45;;;4.03;;
31990;SDS011;18508;49.386;8.370;2023-08-24T13:43:48;5.28;;;3.88;;
31990;SDS011;18508;49.386;8.370;2023-08-24T13:46:17;6.72;;;3.63;;
31990;SDS011;18508;49.386;8.370;2023-08-24T13:48:47;6.82;;;4.22;;
31990;SDS011;18508;49.386;8.370;2023-08-24T13:51:15;7.97;;;4.25;;
31990;SDS011;18508;49.386;8.370;2023-08-24T13:53:44;7.55;;;3.78;;
31990;SDS011;18508;49.386;8.370;2023-08-24T13:56:12;7.38;;;4.13;;
31990;SDS011;18508;49.386;8.370;2023-08-24T13:58:40;6.28;;;4.60;;
31990;SDS011;18508;49.386;8.370;2023-08-24T14:01:10;5.20;;;4.38;;
31990;SDS011;18508;49.386;8.370;2023-08-24T14:03:39;8.18;;;4.50;;
31990;SDS011;18508;49.386;8.370;2023-08-24T14:06:09;8.50;;;4.32;;
31990;SDS011;18508;49.386;8.370;2023-08-24T14:08:40;6.45;;;4.10;;
31990;SDS011;18508;49.386;8.370;2023-08-24T14:11:08;11.75;;;4.55;;
31990;SDS011;18508;49.386;8.370;2023-08-24T14:13:39;8.25;;;4.65;;
31990;SDS011;18508;49.386;8.370;2023-08-24T14:16:09;12.70;;;4.75;;
31990;SDS011;18508;49.386;8.370;2023-08-24T14:18:38;17.60;;;5.35;;
31990;SDS011;18508;49.386;8.370;2023-08-24T14:21:08;12.35;;;4.47;;
31990;SDS011;18508;49.386;8.370;2023-08-24T14:23:41;10.52;;;4.47;;
31990;SDS011;18508;49.386;8.370;2023-08-24T14:26:11;16.83;;;5.55;;
31990;SDS011;18508;49.386;8.370;2023-08-24T14:28:46;16.92;;;5.28;;
31990;SDS011;18508;49.386;8.370;2023-08-24T14:31:17;23.02;;;6.20;;
31990;SDS011;18508;49.386;8.370;2023-08-24T14:33:45;15.82;;;6.88;;
31990;SDS011;18508;49.386;8.370;2023-08-24T14:36:15;19.45;;;8.73;;
31990;SDS011;18508;49.386;8.370;2023-08-24T14:38:43;15.15;;;9.95;;
31990;SDS011;18508;49.386;8.370;2023-08-24T14:41:13;15.75;;;9.50;;
31990;SDS011;18508;49.386;8.370;2023-08-24T14:43:41;12.93;;;9.65;;
31990;SDS011;18508;49.386;8.370;2023-08-24T14:46:10;18.42;;;10.15;;
31990;SDS011;18508;49.386;8.370;2023-08-24T14:48:40;15.23;;;9.85;;
31990;SDS011;18508;49.386;8.370;2023-08-24T14:51:09;13.82;;;9.73;;
31990;SDS011;18508;49.386;8.370;2023-08-24T14:53:38;12.77;;;7.97;;
31990;SDS011;18508;49.386;8.370;2023-08-24T14:56:09;14.05;;;7.75;;
31990;SDS011;18508;49.386;8.370;2023-08-24T14:58:37;11.75;;;7.90;;
31990;SDS011;18508;49.386;8.370;2023-08-24T15:01:05;12.13;;;7.43;;
31990;SDS011;18508;49.386;8.370;2023-08-24T15:03:35;13.60;;;7.85;;